sensor_id;sensor_type;location;lat;lon;timestamp;P1;durP1;ratioP1;P2;durP2;ratioP2
16735;SDS011;17990;49.548;9.730;2022-11-12T00:01:39;30.53;;;13.50;;
16735;SDS011;17990;49.548;9.730;2022-11-12T00:04:06;26.17;;;12.80;;
16735;SDS011;17990;49.548;9.730;2022-11-12T00:06:33;33.57;;;12.40;;
16735;SDS011;17990;49.548;9.730;2022-11-12T00:09:00;28.87;;;12.83;;
16735;SDS011;17990;49.548;9.730;2022-11-12T00:11:27;40.37;;;12.20;;
16735;SDS011;17990;49.548;9.730;2022-11-12T00:13:54;28.70;;;12.07;;
16735;SDS011;17990;49.548;9.730;2022-11-12T00:16:22;22.47;;;12.10;;
16735;SDS011;17990;49.548;9.730;2022-11-12T00:18:49;33.00;;;11.53;;
16735;SDS011;17990;49.548;9.730;2022-11-12T00:21:16;30.33;;;12.03;;
16735;SDS011;17990;49.548;9.730;2022-11-12T00:23:43;29.30;;;12.20;;
16735;SDS011;17990;49.548;9.730;2022-11-12T00:26:10;41.47;;;11.67;;
16735;SDS011;17990;49.548;9.730;2022-11-12T00:28:36;34.73;;;11.67;;
16735;SDS011;17990;49.548;9.730;2022-11-12T00:31:07;37.53;;;12.80;;
16735;SDS011;17990;49.548;9.730;2022-11-12T00:33:41;21.40;;;11.73;;
16735;SDS011;17990;49.548;9.730;2022-11-12T00:36:08;17.47;;;10.70;;
16735;SDS011;17990;49.548;9.730;2022-11-12T00:38:36;18.93;;;11.60;;
16735;SDS011;17990;49.548;9.730;2022-11-12T00:41:03;14.83;;;10.93;;
16735;SDS011;17990;49.548;9.730;2022-11-12T00:43:30;14.37;;;10.83;;
16735;SDS011;17990;49.548;9.730;2022-11-12T00:45:58;14.80;;;10.80;;
16735;SDS011;17990;49.548;9.730;2022-11-12T00:48:24;12.93;;;9.97;;
16735;SDS011;17990;49.548;9.730;2022-11-12T00:50:59;15.03;;;10.87;;
16735;SDS011;17990;49.548;9.730;2022-11-12T00:53:27;14.23;;;10.30;;
16735;SDS011;17990;49.548;9.730;2022-11-12T00:55:58;11.93;;;9.93;;
16735;SDS011;17990;49.548;9.730;2022-11-12T00:58:27;18.37;;;11.10;;
16735;SDS011;17990;49.548;9.730;2022-11-12T01:00:55;12.97;;;9.97;;
16735;SDS011;17990;49.548;9.730;2022-11-12T01:03:22;13.40;;;10.37;;
16735;SDS011;17990;49.548;9.730;2022-11-12T01:05:52;17.87;;;10.07;;
16735;SDS011;17990;49.548;9.730;2022-11-12T01:08:20;17.13;;;10.97;;
16735;SDS011;17990;49.548;9.730;2022-11-12T01:10:47;13.00;;;9.83;;
16735;SDS011;17990;49.548;9.730;2022-11-12T01:13:14;14.17;;;10.17;;
16735;SDS011;17990;49.548;9.730;2022-11-12T01:15:41;11.33;;;9.57;;
16735;SDS011;17990;49.548;9.730;2022-11-12T01:18:08;12.67;;;9.40;;
16735;SDS011;17990;49.548;9.730;2022-11-12T01:20:36;23.73;;;11.00;;
16735;SDS011;17990;49.548;9.730;2022-11-12T01:23:04;13.73;;;9.63;;
16735;SDS011;17990;49.548;9.730;2022-11-12T01:25:32;12.40;;;9.37;;
16735;SDS011;17990;49.548;9.730;2022-11-12T01:28:02;10.60;;;8.93;;
16735;SDS011;17990;49.548;9.730;2022-11-12T01:30:30;10.97;;;8.67;;
16735;SDS011;17990;49.548;9.730;2022-11-12T01:32:56;10.50;;;8.30;;
16735;SDS011;17990;49.548;9.730;2022-11-12T01:35:23;11.90;;;9.27;;
16735;SDS011;17990;49.548;9.730;2022-11-12T01:37:50;11.50;;;8.90;;
16735;SDS011;17990;49.548;9.730;2022-11-12T01:40:17;11.60;;;8.53;;
16735;SDS011;17990;49.548;9.730;2022-11-12T01:42:51;10.40;;;8.63;;
16735;SDS011;17990;49.548;9.730;2022-11-12T01:45:18;11.83;;;8.33;;
16735;SDS011;17990;49.548;9.730;2022-11-12T01:47:45;11.67;;;8.50;;
16735;SDS011;17990;49.548;9.730;2022-11-12T01:50:16;12.00;;;8.50;;
16735;SDS011;17990;49.548;9.730;2022-11-12T01:52:50;10.57;;;8.67;;
16735;SDS011;17990;49.548;9.730;2022-11-12T01:55:21;10.77;;;8.70;;
16735;SDS011;17990;49.548;9.730;2022-11-12T01:57:54;14.40;;;8.83;;
16735;SDS011;17990;49.548;9.730;2022-11-12T02:00:28;13.20;;;8.70;;
16735;SDS011;17990;49.548;9.730;2022-11-12T02:02:56;11.20;;;9.00;;
16735;SDS011;17990;49.548;9.730;2022-11-12T02:05:26;11.87;;;8.70;;
16735;SDS011;17990;49.548;9.730;2022-11-12T02:07:54;10.53;;;7.83;;
16735;SDS011;17990;49.548;9.730;2022-11-12T02:10:24;8.77;;;7.63;;
16735;SDS011;17990;49.548;9.730;2022-11-12T02:12:51;11.73;;;7.77;;
16735;SDS011;17990;49.548;9.730;2022-11-12T02:15:37;12.10;;;7.37;;
16735;SDS011;17990;49.548;9.730;2022-11-12T02:18:07;10.73;;;6.70;;
16735;SDS011;17990;49.548;9.730;2022-11-12T02:20:34;8.67;;;7.53;;
16735;SDS011;17990;49.548;9.730;2022-11-12T02:23:04;8.47;;;6.50;;
16735;SDS011;17990;49.548;9.730;2022-11-12T02:25:34;12.33;;;7.20;;
16735;SDS011;17990;49.548;9.730;2022-11-12T02:28:01;9.67;;;7.00;;
16735;SDS011;17990;49.548;9.730;2022-11-12T02:30:33;9.63;;;6.70;;
16735;SDS011;17990;49.548;9.730;2022-11-12T02:33:01;10.60;;;7.43;;
16735;SDS011;17990;49.548;9.730;2022-11-12T02:35:29;10.40;;;6.80;;
16735;SDS011;17990;49.548;9.730;2022-11-12T02:37:56;8.53;;;6.40;;
16735;SDS011;17990;49.548;9.730;2022-11-12T02:40:25;9.57;;;6.03;;
16735;SDS011;17990;49.548;9.730;2022-11-12T02:42:52;8.13;;;6.57;;
16735;SDS011;17990;49.548;9.730;2022-11-12T02:45:19;6.97;;;5.87;;
16735;SDS011;17990;49.548;9.730;2022-11-12T02:47:46;6.63;;;5.80;;
16735;SDS011;17990;49.548;9.730;2022-11-12T02:50:13;6.27;;;5.50;;
16735;SDS011;17990;49.548;9.730;2022-11-12T02:52:41;7.77;;;5.73;;
16735;SDS011;17990;49.548;9.730;2022-11-12T02:55:08;9.10;;;5.87;;
16735;SDS011;17990;49.548;9.730;2022-11-12T02:57:39;8.63;;;5.33;;
16735;SDS011;17990;49.548;9.730;2022-11-12T03:00:07;6.53;;;5.60;;
16735;SDS011;17990;49.548;9.730;2022-11-12T03:02:38;9.27;;;5.60;;
16735;SDS011;17990;49.548;9.730;2022-11-12T03:05:07;6.57;;;4.87;;
16735;SDS011;17990;49.548;9.730;2022-11-12T03:07:34;6.33;;;5.17;;
16735;SDS011;17990;49.548;9.730;2022-11-12T03:10:02;5.97;;;4.80;;
16735;SDS011;17990;49.548;9.730;2022-11-12T03:12:30;7.17;;;5.70;;
16735;SDS011;17990;49.548;9.730;2022-11-12T03:14:58;6.30;;;5.30;;
16735;SDS011;17990;49.548;9.730;2022-11-12T03:17:25;6.13;;;4.90;;
16735;SDS011;17990;49.548;9.730;2022-11-12T03:19:52;6.37;;;5.23;;
16735;SDS011;17990;49.548;9.730;2022-11-12T03:22:19;6.57;;;5.27;;
16735;SDS011;17990;49.548;9.730;2022-11-12T03:24:46;7.13;;;4.97;;
16735;SDS011;17990;49.548;9.730;2022-11-12T03:27:12;6.47;;;4.67;;
16735;SDS011;17990;49.548;9.730;2022-11-12T03:29:40;5.13;;;4.60;;
16735;SDS011;17990;49.548;9.730;2022-11-12T03:32:08;5.73;;;4.90;;
16735;SDS011;17990;49.548;9.730;2022-11-12T03:34:35;5.90;;;4.97;;
16735;SDS011;17990;49.548;9.730;2022-11-12T03:37:02;6.67;;;5.50;;
16735;SDS011;17990;49.548;9.730;2022-11-12T03:39:29;11.37;;;5.73;;
16735;SDS011;17990;49.548;9.730;2022-11-12T03:41:56;6.87;;;5.17;;
16735;SDS011;17990;49.548;9.730;2022-11-12T03:44:23;7.07;;;5.63;;
16735;SDS011;17990;49.548;9.730;2022-11-12T03:46:49;6.30;;;5.33;;
16735;SDS011;17990;49.548;9.730;2022-11-12T03:49:18;6.80;;;5.40;;
16735;SDS011;17990;49.548;9.730;2022-11-12T03:51:45;7.20;;;5.77;;
16735;SDS011;17990;49.548;9.730;2022-11-12T03:54:11;6.87;;;5.57;;
16735;SDS011;17990;49.548;9.730;2022-11-12T03:56:38;7.60;;;6.17;;
16735;SDS011;17990;49.548;9.730;2022-11-12T03:59:05;11.00;;;6.00;;
16735;SDS011;17990;49.548;9.730;2022-11-12T04:01:32;6.40;;;5.50;;
16735;SDS011;17990;49.548;9.730;2022-11-12T04:03:59;10.33;;;6.37;;
16735;SDS011;17990;49.548;9.730;2022-11-12T04:06:27;15.07;;;6.77;;
16735;SDS011;17990;49.548;9.730;2022-11-12T04:09:12;7.77;;;6.50;;
16735;SDS011;17990;49.548;9.730;2022-11-12T04:11:39;17.00;;;7.23;;
16735;SDS011;17990;49.548;9.730;2022-11-12T04:14:06;13.43;;;7.40;;
16735;SDS011;17990;49.548;9.730;2022-11-12T04:16:32;11.27;;;6.73;;
16735;SDS011;17990;49.548;9.730;2022-11-12T04:19:17;20.27;;;7.87;;
16735;SDS011;17990;49.548;9.730;2022-11-12T04:22:03;24.60;;;7.97;;
16735;SDS011;17990;49.548;9.730;2022-11-12T04:24:33;18.87;;;7.77;;
16735;SDS011;17990;49.548;9.730;2022-11-12T04:27:20;15.73;;;7.23;;
16735;SDS011;17990;49.548;9.730;2022-11-12T04:29:49;8.50;;;6.60;;
16735;SDS011;17990;49.548;9.730;2022-11-12T04:32:34;16.50;;;7.43;;
16735;SDS011;17990;49.548;9.730;2022-11-12T04:35:03;11.53;;;7.13;;
16735;SDS011;17990;49.548;9.730;2022-11-12T04:37:34;8.27;;;6.73;;
16735;SDS011;17990;49.548;9.730;2022-11-12T04:40:12;8.77;;;6.83;;
16735;SDS011;17990;49.548;9.730;2022-11-12T04:42:58;7.10;;;6.27;;
16735;SDS011;17990;49.548;9.730;2022-11-12T04:45:43;8.27;;;6.43;;
16735;SDS011;17990;49.548;9.730;2022-11-12T04:48:11;6.80;;;5.93;;
16735;SDS011;17990;49.548;9.730;2022-11-12T04:50:38;7.13;;;6.07;;
16735;SDS011;17990;49.548;9.730;2022-11-12T04:53:08;7.73;;;6.10;;
16735;SDS011;17990;49.548;9.730;2022-11-12T04:55:35;6.33;;;5.17;;
16735;SDS011;17990;49.548;9.730;2022-11-12T04:58:02;8.03;;;5.90;;
16735;SDS011;17990;49.548;9.730;2022-11-12T05:00:29;8.23;;;6.07;;
16735;SDS011;17990;49.548;9.730;2022-11-12T05:02:56;6.77;;;5.63;;
16735;SDS011;17990;49.548;9.730;2022-11-12T05:05:23;7.97;;;5.50;;
16735;SDS011;17990;49.548;9.730;2022-11-12T05:07:50;5.93;;;5.00;;
16735;SDS011;17990;49.548;9.730;2022-11-12T05:10:18;5.27;;;4.50;;
16735;SDS011;17990;49.548;9.730;2022-11-12T05:12:45;8.10;;;4.80;;
16735;SDS011;17990;49.548;9.730;2022-11-12T05:15:12;7.43;;;4.97;;
16735;SDS011;17990;49.548;9.730;2022-11-12T05:17:40;5.63;;;4.40;;
16735;SDS011;17990;49.548;9.730;2022-11-12T05:20:08;7.70;;;5.90;;
16735;SDS011;17990;49.548;9.730;2022-11-12T05:22:36;6.53;;;4.90;;
16735;SDS011;17990;49.548;9.730;2022-11-12T05:25:03;6.90;;;5.20;;
16735;SDS011;17990;49.548;9.730;2022-11-12T05:27:32;6.10;;;4.77;;
16735;SDS011;17990;49.548;9.730;2022-11-12T05:30:00;5.10;;;4.50;;
16735;SDS011;17990;49.548;9.730;2022-11-12T05:32:27;8.33;;;7.40;;
16735;SDS011;17990;49.548;9.730;2022-11-12T05:34:54;7.03;;;5.33;;
16735;SDS011;17990;49.548;9.730;2022-11-12T05:37:21;8.90;;;5.87;;
16735;SDS011;17990;49.548;9.730;2022-11-12T05:39:49;7.50;;;5.80;;
16735;SDS011;17990;49.548;9.730;2022-11-12T05:42:15;6.03;;;5.33;;
16735;SDS011;17990;49.548;9.730;2022-11-12T05:44:44;6.43;;;5.20;;
16735;SDS011;17990;49.548;9.730;2022-11-12T05:47:11;5.30;;;4.30;;
16735;SDS011;17990;49.548;9.730;2022-11-12T05:49:37;6.50;;;5.07;;
16735;SDS011;17990;49.548;9.730;2022-11-12T05:52:04;5.13;;;3.97;;
16735;SDS011;17990;49.548;9.730;2022-11-12T05:54:31;7.37;;;6.10;;
16735;SDS011;17990;49.548;9.730;2022-11-12T05:56:58;13.00;;;7.93;;
16735;SDS011;17990;49.548;9.730;2022-11-12T05:59:25;18.30;;;12.80;;
16735;SDS011;17990;49.548;9.730;2022-11-12T06:01:53;10.93;;;7.80;;
16735;SDS011;17990;49.548;9.730;2022-11-12T06:04:20;6.27;;;4.50;;
16735;SDS011;17990;49.548;9.730;2022-11-12T06:06:48;5.10;;;4.60;;
16735;SDS011;17990;49.548;9.730;2022-11-12T06:09:15;4.70;;;4.20;;
16735;SDS011;17990;49.548;9.730;2022-11-12T06:11:42;5.87;;;4.10;;
16735;SDS011;17990;49.548;9.730;2022-11-12T06:14:09;5.40;;;4.30;;
16735;SDS011;17990;49.548;9.730;2022-11-12T06:16:36;5.10;;;4.20;;
16735;SDS011;17990;49.548;9.730;2022-11-12T06:19:04;5.33;;;4.47;;
16735;SDS011;17990;49.548;9.730;2022-11-12T06:21:31;6.17;;;4.70;;
16735;SDS011;17990;49.548;9.730;2022-11-12T06:23:58;6.57;;;4.47;;
16735;SDS011;17990;49.548;9.730;2022-11-12T06:26:26;4.97;;;4.47;;
16735;SDS011;17990;49.548;9.730;2022-11-12T06:28:54;4.47;;;4.03;;
16735;SDS011;17990;49.548;9.730;2022-11-12T06:31:22;5.27;;;4.43;;
16735;SDS011;17990;49.548;9.730;2022-11-12T06:33:49;5.07;;;4.37;;
16735;SDS011;17990;49.548;9.730;2022-11-12T06:36:18;4.70;;;4.20;;
16735;SDS011;17990;49.548;9.730;2022-11-12T06:38:45;5.00;;;4.33;;
16735;SDS011;17990;49.548;9.730;2022-11-12T06:41:13;4.67;;;4.10;;
16735;SDS011;17990;49.548;9.730;2022-11-12T06:43:40;4.87;;;4.27;;
16735;SDS011;17990;49.548;9.730;2022-11-12T06:46:09;4.40;;;3.70;;
16735;SDS011;17990;49.548;9.730;2022-11-12T06:48:38;4.67;;;4.13;;
16735;SDS011;17990;49.548;9.730;2022-11-12T06:51:06;5.27;;;4.20;;
16735;SDS011;17990;49.548;9.730;2022-11-12T06:53:37;5.47;;;4.50;;
16735;SDS011;17990;49.548;9.730;2022-11-12T06:56:05;6.00;;;4.73;;
16735;SDS011;17990;49.548;9.730;2022-11-12T06:58:32;8.07;;;5.70;;
16735;SDS011;17990;49.548;9.730;2022-11-12T07:01:07;8.17;;;6.10;;
16735;SDS011;17990;49.548;9.730;2022-11-12T07:03:36;19.27;;;10.70;;
16735;SDS011;17990;49.548;9.730;2022-11-12T07:06:04;11.23;;;8.30;;
16735;SDS011;17990;49.548;9.730;2022-11-12T07:08:34;8.53;;;7.03;;
16735;SDS011;17990;49.548;9.730;2022-11-12T07:11:03;10.70;;;8.43;;
16735;SDS011;17990;49.548;9.730;2022-11-12T07:13:31;9.03;;;7.37;;
16735;SDS011;17990;49.548;9.730;2022-11-12T07:16:00;6.30;;;5.30;;
16735;SDS011;17990;49.548;9.730;2022-11-12T07:18:28;6.87;;;4.73;;
16735;SDS011;17990;49.548;9.730;2022-11-12T07:20:56;16.03;;;5.83;;
16735;SDS011;17990;49.548;9.730;2022-11-12T07:23:24;6.33;;;5.27;;
16735;SDS011;17990;49.548;9.730;2022-11-12T07:25:58;8.00;;;5.70;;
16735;SDS011;17990;49.548;9.730;2022-11-12T07:28:27;8.83;;;6.10;;
16735;SDS011;17990;49.548;9.730;2022-11-12T07:30:55;8.03;;;5.87;;
16735;SDS011;17990;49.548;9.730;2022-11-12T07:33:23;8.67;;;6.17;;
16735;SDS011;17990;49.548;9.730;2022-11-12T07:35:57;9.50;;;6.17;;
16735;SDS011;17990;49.548;9.730;2022-11-12T07:38:26;7.13;;;5.97;;
16735;SDS011;17990;49.548;9.730;2022-11-12T07:40:59;9.13;;;5.80;;
16735;SDS011;17990;49.548;9.730;2022-11-12T07:43:27;18.10;;;9.70;;
16735;SDS011;17990;49.548;9.730;2022-11-12T07:45:56;10.33;;;6.67;;
16735;SDS011;17990;49.548;9.730;2022-11-12T07:48:24;17.97;;;11.47;;
16735;SDS011;17990;49.548;9.730;2022-11-12T07:50:51;13.27;;;9.10;;
16735;SDS011;17990;49.548;9.730;2022-11-12T07:53:18;10.83;;;7.40;;
16735;SDS011;17990;49.548;9.730;2022-11-12T07:55:51;8.23;;;6.20;;
16735;SDS011;17990;49.548;9.730;2022-11-12T07:58:21;6.80;;;5.07;;
16735;SDS011;17990;49.548;9.730;2022-11-12T08:00:48;8.50;;;4.93;;
16735;SDS011;17990;49.548;9.730;2022-11-12T08:03:15;6.30;;;4.90;;
16735;SDS011;17990;49.548;9.730;2022-11-12T08:05:43;6.43;;;4.90;;
16735;SDS011;17990;49.548;9.730;2022-11-12T08:08:10;8.57;;;5.70;;
16735;SDS011;17990;49.548;9.730;2022-11-12T08:10:37;6.83;;;4.70;;
16735;SDS011;17990;49.548;9.730;2022-11-12T08:13:03;8.10;;;5.10;;
16735;SDS011;17990;49.548;9.730;2022-11-12T08:15:32;6.07;;;4.43;;
16735;SDS011;17990;49.548;9.730;2022-11-12T08:17:59;4.97;;;4.30;;
16735;SDS011;17990;49.548;9.730;2022-11-12T08:20:26;5.60;;;4.77;;
16735;SDS011;17990;49.548;9.730;2022-11-12T08:22:53;6.17;;;4.53;;
16735;SDS011;17990;49.548;9.730;2022-11-12T08:25:24;7.50;;;4.63;;
16735;SDS011;17990;49.548;9.730;2022-11-12T08:27:54;5.73;;;4.47;;
16735;SDS011;17990;49.548;9.730;2022-11-12T08:30:22;6.27;;;4.63;;
16735;SDS011;17990;49.548;9.730;2022-11-12T08:32:55;6.07;;;4.43;;
16735;SDS011;17990;49.548;9.730;2022-11-12T08:35:23;9.10;;;5.37;;
16735;SDS011;17990;49.548;9.730;2022-11-12T08:37:51;7.03;;;5.83;;
16735;SDS011;17990;49.548;9.730;2022-11-12T08:40:22;6.80;;;5.20;;
16735;SDS011;17990;49.548;9.730;2022-11-12T08:42:55;6.03;;;4.63;;
16735;SDS011;17990;49.548;9.730;2022-11-12T08:45:23;5.97;;;5.20;;
16735;SDS011;17990;49.548;9.730;2022-11-12T08:47:50;6.10;;;4.50;;
16735;SDS011;17990;49.548;9.730;2022-11-12T08:50:18;4.63;;;3.90;;
16735;SDS011;17990;49.548;9.730;2022-11-12T08:52:45;5.03;;;4.00;;
16735;SDS011;17990;49.548;9.730;2022-11-12T08:55:12;5.03;;;4.07;;
16735;SDS011;17990;49.548;9.730;2022-11-12T08:57:39;5.07;;;3.90;;
16735;SDS011;17990;49.548;9.730;2022-11-12T09:00:08;4.77;;;4.27;;
16735;SDS011;17990;49.548;9.730;2022-11-12T09:02:36;8.37;;;4.93;;
16735;SDS011;17990;49.548;9.730;2022-11-12T09:05:04;4.77;;;4.27;;
16735;SDS011;17990;49.548;9.730;2022-11-12T09:07:33;7.47;;;4.53;;
16735;SDS011;17990;49.548;9.730;2022-11-12T09:10:00;6.70;;;4.23;;
16735;SDS011;17990;49.548;9.730;2022-11-12T09:12:27;5.10;;;3.97;;
16735;SDS011;17990;49.548;9.730;2022-11-12T09:14:54;8.70;;;4.27;;
16735;SDS011;17990;49.548;9.730;2022-11-12T09:17:21;4.77;;;3.97;;
16735;SDS011;17990;49.548;9.730;2022-11-12T09:19:48;5.77;;;4.17;;
16735;SDS011;17990;49.548;9.730;2022-11-12T09:22:14;5.93;;;4.00;;
16735;SDS011;17990;49.548;9.730;2022-11-12T09:24:43;8.97;;;5.00;;
16735;SDS011;17990;49.548;9.730;2022-11-12T09:27:10;11.50;;;7.83;;
16735;SDS011;17990;49.548;9.730;2022-11-12T09:29:36;11.83;;;8.27;;
16735;SDS011;17990;49.548;9.730;2022-11-12T09:32:03;21.87;;;15.37;;
16735;SDS011;17990;49.548;9.730;2022-11-12T09:34:30;14.50;;;11.37;;
16735;SDS011;17990;49.548;9.730;2022-11-12T09:36:57;7.67;;;5.17;;
16735;SDS011;17990;49.548;9.730;2022-11-12T09:39:24;8.13;;;5.20;;
16735;SDS011;17990;49.548;9.730;2022-11-12T09:41:52;7.30;;;5.10;;
16735;SDS011;17990;49.548;9.730;2022-11-12T09:44:19;10.87;;;6.80;;
16735;SDS011;17990;49.548;9.730;2022-11-12T09:46:49;12.47;;;8.37;;
16735;SDS011;17990;49.548;9.730;2022-11-12T09:49:22;9.37;;;6.30;;
16735;SDS011;17990;49.548;9.730;2022-11-12T09:51:55;16.43;;;10.13;;
16735;SDS011;17990;49.548;9.730;2022-11-12T09:54:27;23.57;;;16.17;;
16735;SDS011;17990;49.548;9.730;2022-11-12T09:56:58;25.43;;;14.63;;
16735;SDS011;17990;49.548;9.730;2022-11-12T09:59:26;19.53;;;11.20;;
16735;SDS011;17990;49.548;9.730;2022-11-12T10:01:58;18.63;;;10.93;;
16735;SDS011;17990;49.548;9.730;2022-11-12T10:07:52;11.63;;;7.83;;
16735;SDS011;17990;49.548;9.730;2022-11-12T10:10:34;10.67;;;7.83;;
16735;SDS011;17990;49.548;9.730;2022-11-12T10:13:15;9.73;;;6.90;;
16735;SDS011;17990;49.548;9.730;2022-11-12T10:15:54;8.33;;;6.10;;
16735;SDS011;17990;49.548;9.730;2022-11-12T10:19:09;17.07;;;11.83;;
16735;SDS011;17990;49.548;9.730;2022-11-12T10:22:03;21.00;;;14.97;;
16735;SDS011;17990;49.548;9.730;2022-11-12T10:24:43;16.00;;;11.67;;
16735;SDS011;17990;49.548;9.730;2022-11-12T10:27:10;13.30;;;10.90;;
16735;SDS011;17990;49.548;9.730;2022-11-12T10:29:45;16.70;;;12.70;;
16735;SDS011;17990;49.548;9.730;2022-11-12T10:32:17;14.83;;;11.43;;
16735;SDS011;17990;49.548;9.730;2022-11-12T10:34:44;16.23;;;12.73;;
16735;SDS011;17990;49.548;9.730;2022-11-12T10:37:12;32.33;;;19.30;;
16735;SDS011;17990;49.548;9.730;2022-11-12T10:39:44;22.57;;;13.37;;
16735;SDS011;17990;49.548;9.730;2022-11-12T10:42:13;35.03;;;20.00;;
16735;SDS011;17990;49.548;9.730;2022-11-12T10:44:42;44.33;;;17.33;;
16735;SDS011;17990;49.548;9.730;2022-11-12T10:47:21;24.87;;;12.67;;
16735;SDS011;17990;49.548;9.730;2022-11-12T10:50:10;15.67;;;9.20;;
16735;SDS011;17990;49.548;9.730;2022-11-12T10:52:52;10.93;;;7.50;;
16735;SDS011;17990;49.548;9.730;2022-11-12T10:55:22;13.00;;;9.93;;
16735;SDS011;17990;49.548;9.730;2022-11-12T10:58:04;11.97;;;8.40;;
16735;SDS011;17990;49.548;9.730;2022-11-12T11:00:52;12.97;;;9.50;;
16735;SDS011;17990;49.548;9.730;2022-11-12T11:03:23;12.17;;;9.40;;
16735;SDS011;17990;49.548;9.730;2022-11-12T11:05:53;12.20;;;8.10;;
16735;SDS011;17990;49.548;9.730;2022-11-12T11:08:31;12.27;;;8.40;;
16735;SDS011;17990;49.548;9.730;2022-11-12T11:11:22;11.10;;;7.97;;
16735;SDS011;17990;49.548;9.730;2022-11-12T11:13:51;14.30;;;10.63;;
16735;SDS011;17990;49.548;9.730;2022-11-12T11:16:21;10.23;;;7.63;;
16735;SDS011;17990;49.548;9.730;2022-11-12T11:18:52;9.87;;;7.07;;
16735;SDS011;17990;49.548;9.730;2022-11-12T11:21:25;9.53;;;7.13;;
16735;SDS011;17990;49.548;9.730;2022-11-12T11:24:11;12.17;;;8.47;;
16735;SDS011;17990;49.548;9.730;2022-11-12T11:26:57;10.77;;;7.77;;
16735;SDS011;17990;49.548;9.730;2022-11-12T11:29:33;10.70;;;8.50;;
16735;SDS011;17990;49.548;9.730;2022-11-12T11:32:27;13.83;;;8.50;;
16735;SDS011;17990;49.548;9.730;2022-11-12T11:35:31;14.43;;;7.93;;
16735;SDS011;17990;49.548;9.730;2022-11-12T11:38:26;11.40;;;8.07;;
16735;SDS011;17990;49.548;9.730;2022-11-12T11:41:10;15.80;;;9.73;;
16735;SDS011;17990;49.548;9.730;2022-11-12T11:43:51;16.97;;;9.90;;
16735;SDS011;17990;49.548;9.730;2022-11-12T11:46:31;14.53;;;9.60;;
16735;SDS011;17990;49.548;9.730;2022-11-12T11:49:22;19.47;;;11.13;;
16735;SDS011;17990;49.548;9.730;2022-11-12T11:52:11;24.23;;;15.30;;
16735;SDS011;17990;49.548;9.730;2022-11-12T11:55:07;20.87;;;12.73;;
16735;SDS011;17990;49.548;9.730;2022-11-12T11:57:48;19.80;;;12.30;;
16735;SDS011;17990;49.548;9.730;2022-11-12T12:00:23;30.47;;;15.93;;
16735;SDS011;17990;49.548;9.730;2022-11-12T12:03:04;29.23;;;18.70;;
16735;SDS011;17990;49.548;9.730;2022-11-12T12:05:48;29.77;;;18.33;;
16735;SDS011;17990;49.548;9.730;2022-11-12T12:08:35;22.80;;;15.30;;
16735;SDS011;17990;49.548;9.730;2022-11-12T12:11:18;21.37;;;14.83;;
16735;SDS011;17990;49.548;9.730;2022-11-12T12:13:54;29.93;;;20.10;;
16735;SDS011;17990;49.548;9.730;2022-11-12T12:16:41;21.50;;;13.80;;
16735;SDS011;17990;49.548;9.730;2022-11-12T12:19:21;21.27;;;13.93;;
16735;SDS011;17990;49.548;9.730;2022-11-12T12:22:08;30.33;;;18.13;;
16735;SDS011;17990;49.548;9.730;2022-11-12T12:24:43;25.73;;;15.07;;
16735;SDS011;17990;49.548;9.730;2022-11-12T12:27:16;24.50;;;14.93;;
16735;SDS011;17990;49.548;9.730;2022-11-12T12:29:47;25.73;;;15.70;;
16735;SDS011;17990;49.548;9.730;2022-11-12T12:32:20;25.20;;;15.13;;
16735;SDS011;17990;49.548;9.730;2022-11-12T12:34:51;25.67;;;15.30;;
16735;SDS011;17990;49.548;9.730;2022-11-12T12:37:30;26.87;;;16.30;;
16735;SDS011;17990;49.548;9.730;2022-11-12T12:40:04;24.17;;;15.67;;
16735;SDS011;17990;49.548;9.730;2022-11-12T12:42:43;24.63;;;15.30;;
16735;SDS011;17990;49.548;9.730;2022-11-12T12:45:22;26.83;;;16.57;;
16735;SDS011;17990;49.548;9.730;2022-11-12T12:47:57;24.77;;;16.30;;
16735;SDS011;17990;49.548;9.730;2022-11-12T12:50:26;26.10;;;15.13;;
16735;SDS011;17990;49.548;9.730;2022-11-12T12:53:01;22.57;;;15.53;;
16735;SDS011;17990;49.548;9.730;2022-11-12T12:55:35;21.60;;;14.93;;
16735;SDS011;17990;49.548;9.730;2022-11-12T12:58:13;20.83;;;14.20;;
16735;SDS011;17990;49.548;9.730;2022-11-12T13:00:45;22.10;;;15.40;;
16735;SDS011;17990;49.548;9.730;2022-11-12T13:06:20;19.20;;;13.47;;
16735;SDS011;17990;49.548;9.730;2022-11-12T13:08:53;21.53;;;13.80;;
16735;SDS011;17990;49.548;9.730;2022-11-12T13:14:44;16.30;;;12.03;;
16735;SDS011;17990;49.548;9.730;2022-11-12T13:17:43;18.03;;;12.07;;
16735;SDS011;17990;49.548;9.730;2022-11-12T13:20:23;19.53;;;12.17;;
16735;SDS011;17990;49.548;9.730;2022-11-12T13:23:09;20.93;;;13.27;;
16735;SDS011;17990;49.548;9.730;2022-11-12T13:26:43;20.60;;;14.00;;
16735;SDS011;17990;49.548;9.730;2022-11-12T13:29:17;20.07;;;13.53;;
16735;SDS011;17990;49.548;9.730;2022-11-12T13:35:19;25.20;;;16.70;;
16735;SDS011;17990;49.548;9.730;2022-11-12T13:37:52;27.73;;;18.37;;
16735;SDS011;17990;49.548;9.730;2022-11-12T13:40:44;28.87;;;19.50;;
16735;SDS011;17990;49.548;9.730;2022-11-12T13:43:19;28.33;;;19.80;;
16735;SDS011;17990;49.548;9.730;2022-11-12T13:46:05;28.67;;;19.40;;
16735;SDS011;17990;49.548;9.730;2022-11-12T13:48:53;30.30;;;21.67;;
16735;SDS011;17990;49.548;9.730;2022-11-12T13:51:27;30.23;;;22.23;;
16735;SDS011;17990;49.548;9.730;2022-11-12T13:57:11;39.47;;;23.13;;
16735;SDS011;17990;49.548;9.730;2022-11-12T14:02:47;32.43;;;23.30;;
16735;SDS011;17990;49.548;9.730;2022-11-12T14:05:19;31.33;;;23.30;;
16735;SDS011;17990;49.548;9.730;2022-11-12T14:07:51;53.83;;;26.53;;
16735;SDS011;17990;49.548;9.730;2022-11-12T14:10:34;36.17;;;25.47;;
16735;SDS011;17990;49.548;9.730;2022-11-12T14:13:12;32.13;;;23.73;;
16735;SDS011;17990;49.548;9.730;2022-11-12T14:16:13;31.37;;;22.97;;
16735;SDS011;17990;49.548;9.730;2022-11-12T14:19:05;31.63;;;23.67;;
16735;SDS011;17990;49.548;9.730;2022-11-12T14:21:56;31.63;;;22.80;;
16735;SDS011;17990;49.548;9.730;2022-11-12T14:24:25;33.30;;;25.13;;
16735;SDS011;17990;49.548;9.730;2022-11-12T14:26:52;30.60;;;23.83;;
16735;SDS011;17990;49.548;9.730;2022-11-12T14:29:19;31.17;;;23.87;;
16735;SDS011;17990;49.548;9.730;2022-11-12T14:31:46;31.33;;;23.13;;
16735;SDS011;17990;49.548;9.730;2022-11-12T14:34:27;29.77;;;22.73;;
16735;SDS011;17990;49.548;9.730;2022-11-12T14:36:57;30.30;;;22.27;;
16735;SDS011;17990;49.548;9.730;2022-11-12T14:39:24;28.97;;;21.03;;
16735;SDS011;17990;49.548;9.730;2022-11-12T14:41:55;25.10;;;20.70;;
16735;SDS011;17990;49.548;9.730;2022-11-12T14:44:26;24.70;;;20.87;;
16735;SDS011;17990;49.548;9.730;2022-11-12T14:46:58;29.50;;;20.83;;
16735;SDS011;17990;49.548;9.730;2022-11-12T14:49:29;27.57;;;21.50;;
16735;SDS011;17990;49.548;9.730;2022-11-12T14:52:02;26.60;;;21.37;;
16735;SDS011;17990;49.548;9.730;2022-11-12T14:54:38;30.37;;;21.33;;
16735;SDS011;17990;49.548;9.730;2022-11-12T14:57:09;30.30;;;22.17;;
16735;SDS011;17990;49.548;9.730;2022-11-12T14:59:43;28.77;;;22.87;;
16735;SDS011;17990;49.548;9.730;2022-11-12T15:02:11;29.93;;;22.70;;
16735;SDS011;17990;49.548;9.730;2022-11-12T15:04:42;30.17;;;23.33;;
16735;SDS011;17990;49.548;9.730;2022-11-12T15:07:21;29.43;;;22.30;;
16735;SDS011;17990;49.548;9.730;2022-11-12T15:09:50;29.27;;;21.80;;
16735;SDS011;17990;49.548;9.730;2022-11-12T15:12:19;27.73;;;21.30;;
16735;SDS011;17990;49.548;9.730;2022-11-12T15:14:48;37.20;;;23.20;;
16735;SDS011;17990;49.548;9.730;2022-11-12T15:17:25;28.50;;;22.40;;
16735;SDS011;17990;49.548;9.730;2022-11-12T15:20:01;29.47;;;22.63;;
16735;SDS011;17990;49.548;9.730;2022-11-12T15:22:29;31.53;;;22.67;;